sensor_id;sensor_type;location;lat;lon;timestamp;temperature;humidity
45012;DHT22;63444;48.148;11.542;2023-07-28T00:02:20;19.10;99.90
45012;DHT22;63444;48.148;11.542;2023-07-28T00:04:46;19.00;99.90
45012;DHT22;63444;48.148;11.542;2023-07-28T00:07:12;19.00;99.90
45012;DHT22;63444;48.148;11.542;2023-07-28T00:09:37;18.90;99.90
45012;DHT22;63444;48.148;11.542;2023-07-28T00:12:03;18.90;99.90
45012;DHT22;63444;48.148;11.542;2023-07-28T00:14:29;18.90;99.90
45012;DHT22;63444;48.148;11.542;2023-07-28T00:16:56;18.90;99.90
45012;DHT22;63444;48.148;11.542;2023-07-28T00:19:22;18.80;99.90
45012;DHT22;63444;48.148;11.542;2023-07-28T00:21:48;18.80;99.90
45012;DHT22;63444;48.148;11.542;2023-07-28T00:24:14;18.80;99.90
45012;DHT22;63444;48.148;11.542;2023-07-28T00:26:40;18.80;99.90
45012;DHT22;63444;48.148;11.542;2023-07-28T00:29:06;18.70;99.90
45012;DHT22;63444;48.148;11.542;2023-07-28T00:31:33;18.70;99.90
45012;DHT22;63444;48.148;11.542;2023-07-28T00:33:59;18.70;99.90
45012;DHT22;63444;48.148;11.542;2023-07-28T00:36:24;18.70;99.90
45012;DHT22;63444;48.148;11.542;2023-07-28T00:38:50;18.80;99.90
45012;DHT22;63444;48.148;11.542;2023-07-28T00:41:15;18.80;99.90
45012;DHT22;63444;48.148;11.542;2023-07-28T00:43:41;18.80;99.90
45012;DHT22;63444;48.148;11.542;2023-07-28T00:46:08;18.80;99.90
45012;DHT22;63444;48.148;11.542;2023-07-28T00:48:35;18.80;99.90
45012;DHT22;63444;48.148;11.542;2023-07-28T00:51:00;18.80;99.90
45012;DHT22;63444;48.148;11.542;2023-07-28T00:53:26;18.80;99.90
45012;DHT22;63444;48.148;11.542;2023-07-28T00:55:52;18.80;99.90
45012;DHT22;63444;48.148;11.542;2023-07-28T00:58:19;18.80;99.90
45012;DHT22;63444;48.148;11.542;2023-07-28T01:00:44;18.90;99.90
45012;DHT22;63444;48.148;11.542;2023-07-28T01:03:10;18.80;99.90
45012;DHT22;63444;48.148;11.542;2023-07-28T01:05:56;18.80;99.90
45012;DHT22;63444;48.148;11.542;2023-07-28T01:08:34;18.80;99.90
45012;DHT22;63444;48.148;11.542;2023-07-28T01:11:02;18.80;99.90
45012;DHT22;63444;48.148;11.542;2023-07-28T01:13:28;18.70;99.90
45012;DHT22;63444;48.148;11.542;2023-07-28T01:15:54;18.70;99.90
45012;DHT22;63444;48.148;11.542;2023-07-28T01:18:19;18.70;99.90
45012;DHT22;63444;48.148;11.542;2023-07-28T01:20:46;18.70;99.90
45012;DHT22;63444;48.148;11.542;2023-07-28T01:23:20;18.70;99.90
45012;DHT22;63444;48.148;11.542;2023-07-28T01:26:09;18.70;99.90
45012;DHT22;63444;48.148;11.542;2023-07-28T01:28:35;18.60;99.90
45012;DHT22;63444;48.148;11.542;2023-07-28T01:31:04;18.60;99.90
45012;DHT22;63444;48.148;11.542;2023-07-28T01:33:30;18.60;99.90
45012;DHT22;63444;48.148;11.542;2023-07-28T01:35:55;18.50;99.90
45012;DHT22;63444;48.148;11.542;2023-07-28T01:38:21;18.60;99.90
45012;DHT22;63444;48.148;11.542;2023-07-28T01:40:47;18.60;99.90
45012;DHT22;63444;48.148;11.542;2023-07-28T01:43:12;18.40;99.90
45012;DHT22;63444;48.148;11.542;2023-07-28T01:45:38;18.50;99.90
45012;DHT22;63444;48.148;11.542;2023-07-28T01:48:04;18.50;99.90
45012;DHT22;63444;48.148;11.542;2023-07-28T01:50:30;18.40;99.90
45012;DHT22;63444;48.148;11.542;2023-07-28T01:52:56;18.40;99.90
45012;DHT22;63444;48.148;11.542;2023-07-28T01:55:22;18.40;99.90
45012;DHT22;63444;48.148;11.542;2023-07-28T01:57:55;18.30;99.90
45012;DHT22;63444;48.148;11.542;2023-07-28T02:00:21;18.30;99.90
45012;DHT22;63444;48.148;11.542;2023-07-28T02:02:48;18.30;99.90
45012;DHT22;63444;48.148;11.542;2023-07-28T02:05:13;18.20;99.90
45012;DHT22;63444;48.148;11.542;2023-07-28T02:07:39;18.20;99.90
45012;DHT22;63444;48.148;11.542;2023-07-28T02:10:05;18.20;99.90
45012;DHT22;63444;48.148;11.542;2023-07-28T02:12:30;18.20;99.90
45012;DHT22;63444;48.148;11.542;2023-07-28T02:14:56;18.20;99.90
45012;DHT22;63444;48.148;11.542;2023-07-28T02:17:22;18.20;99.90
45012;DHT22;63444;48.148;11.542;2023-07-28T02:19:47;18.20;99.90
45012;DHT22;63444;48.148;11.542;2023-07-28T02:22:13;18.20;99.90
45012;DHT22;63444;48.148;11.542;2023-07-28T02:24:38;18.20;99.90
45012;DHT22;63444;48.148;11.542;2023-07-28T02:27:04;18.20;99.90
45012;DHT22;63444;48.148;11.542;2023-07-28T02:29:30;18.20;99.90
45012;DHT22;63444;48.148;11.542;2023-07-28T02:31:55;18.10;99.90
45012;DHT22;63444;48.148;11.542;2023-07-28T02:34:21;18.20;99.90
45012;DHT22;63444;48.148;11.542;2023-07-28T02:36:47;18.10;99.90
45012;DHT22;63444;48.148;11.542;2023-07-28T02:39:12;18.20;99.90
45012;DHT22;63444;48.148;11.542;2023-07-28T02:41:38;18.10;99.90
45012;DHT22;63444;48.148;11.542;2023-07-28T02:44:03;18.10;99.90
45012;DHT22;63444;48.148;11.542;2023-07-28T02:46:29;18.10;99.90
45012;DHT22;63444;48.148;11.542;2023-07-28T02:48:54;18.10;99.90
45012;DHT22;63444;48.148;11.542;2023-07-28T02:51:20;18.10;99.90
45012;DHT22;63444;48.148;11.542;2023-07-28T02:53:46;18.00;99.90
45012;DHT22;63444;48.148;11.542;2023-07-28T02:56:11;18.00;99.90
45012;DHT22;63444;48.148;11.542;2023-07-28T02:58:37;17.90;99.90
45012;DHT22;63444;48.148;11.542;2023-07-28T03:01:02;17.90;99.90
45012;DHT22;63444;48.148;11.542;2023-07-28T03:03:28;17.90;99.90
45012;DHT22;63444;48.148;11.542;2023-07-28T03:05:53;17.90;99.90
45012;DHT22;63444;48.148;11.542;2023-07-28T03:08:20;17.90;99.90
45012;DHT22;63444;48.148;11.542;2023-07-28T03:10:45;17.90;99.90
45012;DHT22;63444;48.148;11.542;2023-07-28T03:13:11;17.90;99.90
45012;DHT22;63444;48.148;11.542;2023-07-28T03:15:36;17.90;99.90
45012;DHT22;63444;48.148;11.542;2023-07-28T03:18:02;17.80;99.90
45012;DHT22;63444;48.148;11.542;2023-07-28T03:20:28;17.80;99.90
45012;DHT22;63444;48.148;11.542;2023-07-28T03:22:55;17.80;99.90
45012;DHT22;63444;48.148;11.542;2023-07-28T03:25:21;17.80;99.90
45012;DHT22;63444;48.148;11.542;2023-07-28T03:27:46;17.80;99.90
45012;DHT22;63444;48.148;11.542;2023-07-28T03:30:12;17.70;99.90
45012;DHT22;63444;48.148;11.542;2023-07-28T03:32:38;17.70;99.90
45012;DHT22;63444;48.148;11.542;2023-07-28T03:35:04;17.70;99.90
45012;DHT22;63444;48.148;11.542;2023-07-28T03:37:31;17.70;99.90
45012;DHT22;63444;48.148;11.542;2023-07-28T03:39:57;17.70;99.90
45012;DHT22;63444;48.148;11.542;2023-07-28T03:42:23;17.70;99.90
45012;DHT22;63444;48.148;11.542;2023-07-28T03:44:48;17.70;99.90
45012;DHT22;63444;48.148;11.542;2023-07-28T03:47:14;17.70;99.90
45012;DHT22;63444;48.148;11.542;2023-07-28T03:49:40;17.70;99.90
45012;DHT22;63444;48.148;11.542;2023-07-28T03:52:05;17.70;99.90
45012;DHT22;63444;48.148;11.542;2023-07-28T03:54:31;17.70;99.90
45012;DHT22;63444;48.148;11.542;2023-07-28T03:56:57;17.70;99.90
45012;DHT22;63444;48.148;11.542;2023-07-28T03:59:22;17.80;99.90
45012;DHT22;63444;48.148;11.542;2023-07-28T04:01:48;17.80;99.90
45012;DHT22;63444;48.148;11.542;2023-07-28T04:04:13;17.80;99.90
45012;DHT22;63444;48.148;11.542;2023-07-28T04:06:43;17.80;99.90
45012;DHT22;63444;48.148;11.542;2023-07-28T04:09:10;17.80;99.90
45012;DHT22;63444;48.148;11.542;2023-07-28T04:11:37;17.80;99.90
45012;DHT22;63444;48.148;11.542;2023-07-28T04:14:03;17.80;99.90
45012;DHT22;63444;48.148;11.542;2023-07-28T04:16:29;17.80;99.90
45012;DHT22;63444;48.148;11.542;2023-07-28T04:18:54;17.90;99.90
45012;DHT22;63444;48.148;11.542;2023-07-28T04:21:20;17.90;99.90
45012;DHT22;63444;48.148;11.542;2023-07-28T04:23:46;18.00;99.90
45012;DHT22;63444;48.148;11.542;2023-07-28T04:26:12;18.00;99.90
45012;DHT22;63444;48.148;11.542;2023-07-28T04:28:37;18.00;99.90
45012;DHT22;63444;48.148;11.542;2023-07-28T04:31:03;18.10;99.90
45012;DHT22;63444;48.148;11.542;2023-07-28T04:33:28;18.10;99.90
45012;DHT22;63444;48.148;11.542;2023-07-28T04:35:54;18.10;99.90
45012;DHT22;63444;48.148;11.542;2023-07-28T04:38:20;18.20;99.90
45012;DHT22;63444;48.148;11.542;2023-07-28T04:40:45;18.20;99.90
45012;DHT22;63444;48.148;11.542;2023-07-28T04:43:11;18.20;99.90
45012;DHT22;63444;48.148;11.542;2023-07-28T04:45:36;18.20;99.90
45012;DHT22;63444;48.148;11.542;2023-07-28T04:48:02;18.20;99.90
45012;DHT22;63444;48.148;11.542;2023-07-28T04:50:28;18.30;99.90
45012;DHT22;63444;48.148;11.542;2023-07-28T04:52:54;18.30;99.90
45012;DHT22;63444;48.148;11.542;2023-07-28T04:55:20;18.30;99.90
45012;DHT22;63444;48.148;11.542;2023-07-28T04:57:46;18.40;99.90
45012;DHT22;63444;48.148;11.542;2023-07-28T05:00:12;18.50;99.90
45012;DHT22;63444;48.148;11.542;2023-07-28T05:02:38;18.50;99.90
45012;DHT22;63444;48.148;11.542;2023-07-28T05:05:04;18.60;99.90
45012;DHT22;63444;48.148;11.542;2023-07-28T05:07:30;18.60;99.90
45012;DHT22;63444;48.148;11.542;2023-07-28T05:09:55;18.60;99.90
45012;DHT22;63444;48.148;11.542;2023-07-28T05:12:21;18.60;99.90
45012;DHT22;63444;48.148;11.542;2023-07-28T05:14:46;18.70;99.90
45012;DHT22;63444;48.148;11.542;2023-07-28T05:17:12;18.70;99.90
45012;DHT22;63444;48.148;11.542;2023-07-28T05:19:38;18.70;99.90
45012;DHT22;63444;48.148;11.542;2023-07-28T05:22:04;18.70;99.90
45012;DHT22;63444;48.148;11.542;2023-07-28T05:24:32;18.80;99.90
45012;DHT22;63444;48.148;11.542;2023-07-28T05:26:58;18.70;99.90
45012;DHT22;63444;48.148;11.542;2023-07-28T05:29:23;18.80;99.90
45012;DHT22;63444;48.148;11.542;2023-07-28T05:31:49;18.80;99.90
45012;DHT22;63444;48.148;11.542;2023-07-28T05:34:14;18.90;99.90
45012;DHT22;63444;48.148;11.542;2023-07-28T05:36:40;18.90;99.90
45012;DHT22;63444;48.148;11.542;2023-07-28T05:39:05;19.00;99.90
45012;DHT22;63444;48.148;11.542;2023-07-28T05:41:31;19.00;99.90
45012;DHT22;63444;48.148;11.542;2023-07-28T05:43:57;19.10;99.90
45012;DHT22;63444;48.148;11.542;2023-07-28T05:46:23;19.10;99.90
45012;DHT22;63444;48.148;11.542;2023-07-28T05:48:48;19.20;99.90
45012;DHT22;63444;48.148;11.542;2023-07-28T05:51:14;19.30;99.90
45012;DHT22;63444;48.148;11.542;2023-07-28T05:53:40;19.30;99.90
45012;DHT22;63444;48.148;11.542;2023-07-28T05:56:05;19.40;99.90
45012;DHT22;63444;48.148;11.542;2023-07-28T05:58:31;19.40;99.90
45012;DHT22;63444;48.148;11.542;2023-07-28T06:00:57;19.50;99.90
45012;DHT22;63444;48.148;11.542;2023-07-28T06:03:22;19.60;99.90
45012;DHT22;63444;48.148;11.542;2023-07-28T06:05:48;19.90;99.90
45012;DHT22;63444;48.148;11.542;2023-07-28T06:08:14;20.20;99.90
45012;DHT22;63444;48.148;11.542;2023-07-28T06:10:39;20.40;99.90
45012;DHT22;63444;48.148;11.542;2023-07-28T06:13:05;20.40;99.90
45012;DHT22;63444;48.148;11.542;2023-07-28T06:15:31;20.50;99.90
45012;DHT22;63444;48.148;11.542;2023-07-28T06:17:56;20.40;99.90
45012;DHT22;63444;48.148;11.542;2023-07-28T06:20:22;20.40;99.90
45012;DHT22;63444;48.148;11.542;2023-07-28T06:22:48;20.40;99.90
45012;DHT22;63444;48.148;11.542;2023-07-28T06:25:13;20.40;99.90
45012;DHT22;63444;48.148;11.542;2023-07-28T06:27:39;20.40;99.90
45012;DHT22;63444;48.148;11.542;2023-07-28T06:30:05;20.40;99.90
45012;DHT22;63444;48.148;11.542;2023-07-28T06:32:31;20.40;99.90
45012;DHT22;63444;48.148;11.542;2023-07-28T06:34:56;20.60;99.90
45012;DHT22;63444;48.148;11.542;2023-07-28T06:37:23;20.90;99.90
45012;DHT22;63444;48.148;11.542;2023-07-28T06:39:48;21.30;99.90
45012;DHT22;63444;48.148;11.542;2023-07-28T06:42:14;21.80;99.90
45012;DHT22;63444;48.148;11.542;2023-07-28T06:44:42;22.30;99.90
45012;DHT22;63444;48.148;11.542;2023-07-28T06:47:07;22.90;99.90
45012;DHT22;63444;48.148;11.542;2023-07-28T06:49:33;23.30;99.90
45012;DHT22;63444;48.148;11.542;2023-07-28T06:51:58;23.70;99.90
45012;DHT22;63444;48.148;11.542;2023-07-28T06:54:24;24.00;99.90
45012;DHT22;63444;48.148;11.542;2023-07-28T06:56:50;24.10;99.60
45012;DHT22;63444;48.148;11.542;2023-07-28T06:59:16;24.40;99.40
45012;DHT22;63444;48.148;11.542;2023-07-28T07:01:41;24.80;98.60
45012;DHT22;63444;48.148;11.542;2023-07-28T07:04:07;25.40;98.10
45012;DHT22;63444;48.148;11.542;2023-07-28T07:06:33;26.00;97.00
45012;DHT22;63444;48.148;11.542;2023-07-28T07:08:58;26.50;96.10
45012;DHT22;63444;48.148;11.542;2023-07-28T07:11:24;26.90;94.70
45012;DHT22;63444;48.148;11.542;2023-07-28T07:13:50;27.20;93.70
45012;DHT22;63444;48.148;11.542;2023-07-28T07:16:16;27.20;93.40
45012;DHT22;63444;48.148;11.542;2023-07-28T07:18:45;27.20;93.20
45012;DHT22;63444;48.148;11.542;2023-07-28T07:21:10;27.20;93.20
45012;DHT22;63444;48.148;11.542;2023-07-28T07:23:37;27.30;92.70
45012;DHT22;63444;48.148;11.542;2023-07-28T07:26:03;27.30;92.60
45012;DHT22;63444;48.148;11.542;2023-07-28T07:28:28;27.20;92.60
45012;DHT22;63444;48.148;11.542;2023-07-28T07:30:54;27.10;92.40
45012;DHT22;63444;48.148;11.542;2023-07-28T07:33:20;27.20;92.70
45012;DHT22;63444;48.148;11.542;2023-07-28T07:35:46;27.20;92.70
45012;DHT22;63444;48.148;11.542;2023-07-28T07:38:11;27.20;92.30
45012;DHT22;63444;48.148;11.542;2023-07-28T07:40:37;27.30;92.40
45012;DHT22;63444;48.148;11.542;2023-07-28T07:43:03;27.30;92.20
45012;DHT22;63444;48.148;11.542;2023-07-28T07:45:30;27.30;92.20
45012;DHT22;63444;48.148;11.542;2023-07-28T07:47:56;27.30;91.90
45012;DHT22;63444;48.148;11.542;2023-07-28T07:50:21;27.40;91.50
45012;DHT22;63444;48.148;11.542;2023-07-28T07:52:47;27.50;91.00
45012;DHT22;63444;48.148;11.542;2023-07-28T07:55:13;27.50;90.70
45012;DHT22;63444;48.148;11.542;2023-07-28T07:57:39;27.40;90.10
45012;DHT22;63444;48.148;11.542;2023-07-28T08:00:05;27.40;90.00
45012;DHT22;63444;48.148;11.542;2023-07-28T08:02:33;27.30;90.00
45012;DHT22;63444;48.148;11.542;2023-07-28T08:04:59;27.10;90.00
45012;DHT22;63444;48.148;11.542;2023-07-28T08:07:26;27.00;90.00
45012;DHT22;63444;48.148;11.542;2023-07-28T08:09:52;27.00;90.20
45012;DHT22;63444;48.148;11.542;2023-07-28T08:12:18;26.90;90.40
45012;DHT22;63444;48.148;11.542;2023-07-28T08:14:44;26.90;90.50
45012;DHT22;63444;48.148;11.542;2023-07-28T08:17:11;26.90;90.60
45012;DHT22;63444;48.148;11.542;2023-07-28T08:19:37;26.90;90.70
45012;DHT22;63444;48.148;11.542;2023-07-28T08:22:02;27.00;90.70
45012;DHT22;63444;48.148;11.542;2023-07-28T08:24:29;27.00;90.70
45012;DHT22;63444;48.148;11.542;2023-07-28T08:26:54;27.10;90.90
45012;DHT22;63444;48.148;11.542;2023-07-28T08:29:20;27.30;90.70
45012;DHT22;63444;48.148;11.542;2023-07-28T08:31:46;27.50;90.70
45012;DHT22;63444;48.148;11.542;2023-07-28T08:34:12;27.70;90.80
45012;DHT22;63444;48.148;11.542;2023-07-28T08:36:38;27.70;90.20
45012;DHT22;63444;48.148;11.542;2023-07-28T08:39:04;27.70;90.50
45012;DHT22;63444;48.148;11.542;2023-07-28T08:41:30;27.70;90.40
45012;DHT22;63444;48.148;11.542;2023-07-28T08:43:56;27.60;90.50
45012;DHT22;63444;48.148;11.542;2023-07-28T08:46:22;27.60;90.60
45012;DHT22;63444;48.148;11.542;2023-07-28T08:48:48;27.50;90.70
45012;DHT22;63444;48.148;11.542;2023-07-28T08:51:14;27.40;90.40
45012;DHT22;63444;48.148;11.542;2023-07-28T08:53:40;27.40;90.80
45012;DHT22;63444;48.148;11.542;2023-07-28T08:56:06;27.50;90.70
45012;DHT22;63444;48.148;11.542;2023-07-28T08:58:32;27.50;90.80
45012;DHT22;63444;48.148;11.542;2023-07-28T09:00:58;27.60;90.60
45012;DHT22;63444;48.148;11.542;2023-07-28T09:03:27;27.60;90.50
45012;DHT22;63444;48.148;11.542;2023-07-28T09:06:01;27.60;90.30
45012;DHT22;63444;48.148;11.542;2023-07-28T09:08:29;27.50;90.10
45012;DHT22;63444;48.148;11.542;2023-07-28T09:10:55;27.40;90.20
45012;DHT22;63444;48.148;11.542;2023-07-28T09:13:21;27.30;90.40
45012;DHT22;63444;48.148;11.542;2023-07-28T09:15:47;27.20;90.40
45012;DHT22;63444;48.148;11.542;2023-07-28T09:18:17;27.20;90.30
45012;DHT22;63444;48.148;11.542;2023-07-28T09:20:43;26.90;90.10
45012;DHT22;63444;48.148;11.542;2023-07-28T09:23:09;26.60;90.40
45012;DHT22;63444;48.148;11.542;2023-07-28T09:25:37;26.60;90.60
45012;DHT22;63444;48.148;11.542;2023-07-28T09:28:03;26.50;90.90
45012;DHT22;63444;48.148;11.542;2023-07-28T09:30:47;26.40;91.00
45012;DHT22;63444;48.148;11.542;2023-07-28T09:33:13;26.30;91.00
45012;DHT22;63444;48.148;11.542;2023-07-28T09:35:48;26.20;91.10
45012;DHT22;63444;48.148;11.542;2023-07-28T09:38:14;26.10;91.20
45012;DHT22;63444;48.148;11.542;2023-07-28T09:40:40;26.00;91.10
45012;DHT22;63444;48.148;11.542;2023-07-28T09:43:07;25.90;91.20
45012;DHT22;63444;48.148;11.542;2023-07-28T09:45:34;25.80;91.30
45012;DHT22;63444;48.148;11.542;2023-07-28T09:48:02;25.70;91.40
45012;DHT22;63444;48.148;11.542;2023-07-28T09:50:32;25.60;91.80
45012;DHT22;63444;48.148;11.542;2023-07-28T09:53:02;25.50;92.00
45012;DHT22;63444;48.148;11.542;2023-07-28T09:55:28;25.40;92.00
45012;DHT22;63444;48.148;11.542;2023-07-28T09:57:55;25.40;92.20
45012;DHT22;63444;48.148;11.542;2023-07-28T10:00:23;25.40;92.50
45012;DHT22;63444;48.148;11.542;2023-07-28T10:02:49;25.50;92.30
45012;DHT22;63444;48.148;11.542;2023-07-28T10:05:16;25.40;92.50
45012;DHT22;63444;48.148;11.542;2023-07-28T10:07:43;25.50;92.50
45012;DHT22;63444;48.148;11.542;2023-07-28T10:10:14;25.60;91.90
45012;DHT22;63444;48.148;11.542;2023-07-28T10:12:50;25.70;91.70
45012;DHT22;63444;48.148;11.542;2023-07-28T10:15:18;25.70;91.80
45012;DHT22;63444;48.148;11.542;2023-07-28T10:17:53;25.60;92.00
45012;DHT22;63444;48.148;11.542;2023-07-28T10:20:37;25.70;92.00
45012;DHT22;63444;48.148;11.542;2023-07-28T10:23:14;25.70;91.90
45012;DHT22;63444;48.148;11.542;2023-07-28T10:25:41;25.60;91.90
45012;DHT22;63444;48.148;11.542;2023-07-28T10:28:24;25.60;91.80
45012;DHT22;63444;48.148;11.542;2023-07-28T10:30:54;25.60;91.90
45012;DHT22;63444;48.148;11.542;2023-07-28T10:33:34;25.70;91.90
45012;DHT22;63444;48.148;11.542;2023-07-28T10:41:27;25.50;91.80
45012;DHT22;63444;48.148;11.542;2023-07-28T10:43:53;25.40;91.70
45012;DHT22;63444;48.148;11.542;2023-07-28T10:46:21;25.40;91.80
45012;DHT22;63444;48.148;11.542;2023-07-28T10:48:48;25.40;92.50
45012;DHT22;63444;48.148;11.542;2023-07-28T10:51:25;25.30;91.50
45012;DHT22;63444;48.148;11.542;2023-07-28T10:53:56;25.30;91.50
45012;DHT22;63444;48.148;11.542;2023-07-28T10:56:23;25.30;91.60
45012;DHT22;63444;48.148;11.542;2023-07-28T10:59:04;25.20;91.70
45012;DHT22;63444;48.148;11.542;2023-07-28T11:01:32;25.20;92.00
45012;DHT22;63444;48.148;11.542;2023-07-28T11:06:41;25.30;92.00
45012;DHT22;63444;48.148;11.542;2023-07-28T11:09:08;25.30;91.70
45012;DHT22;63444;48.148;11.542;2023-07-28T11:11:36;25.40;91.50
45012;DHT22;63444;48.148;11.542;2023-07-28T11:14:04;25.40;91.70
45012;DHT22;63444;48.148;11.542;2023-07-28T11:16:32;25.50;91.70
45012;DHT22;63444;48.148;11.542;2023-07-28T11:19:02;25.60;91.80
45012;DHT22;63444;48.148;11.542;2023-07-28T11:21:28;25.70;91.40
45012;DHT22;63444;48.148;11.542;2023-07-28T11:23:54;25.70;91.40
45012;DHT22;63444;48.148;11.542;2023-07-28T11:26:21;25.80;91.20
45012;DHT22;63444;48.148;11.542;2023-07-28T11:28:47;25.80;91.30
45012;DHT22;63444;48.148;11.542;2023-07-28T11:31:13;25.80;91.30
45012;DHT22;63444;48.148;11.542;2023-07-28T11:33:39;25.80;91.10
45012;DHT22;63444;48.148;11.542;2023-07-28T11:36:05;25.60;91.20
45012;DHT22;63444;48.148;11.542;2023-07-28T11:38:32;25.60;91.50
45012;DHT22;63444;48.148;11.542;2023-07-28T11:40:59;25.60;91.50
45012;DHT22;63444;48.148;11.542;2023-07-28T11:43:25;25.60;91.70
45012;DHT22;63444;48.148;11.542;2023-07-28T11:45:51;25.70;91.60
45012;DHT22;63444;48.148;11.542;2023-07-28T11:48:17;25.60;91.70
45012;DHT22;63444;48.148;11.542;2023-07-28T11:50:43;25.60;91.80
45012;DHT22;63444;48.148;11.542;2023-07-28T11:53:10;25.70;91.60
45012;DHT22;63444;48.148;11.542;2023-07-28T11:55:38;25.70;91.60
45012;DHT22;63444;48.148;11.542;2023-07-28T11:58:05;25.80;91.80
45012;DHT22;63444;48.148;11.542;2023-07-28T12:00:32;25.80;91.60
45012;DHT22;63444;48.148;11.542;2023-07-28T12:03:21;25.80;91.00
45012;DHT22;63444;48.148;11.542;2023-07-28T12:06:13;25.80;90.40
45012;DHT22;63444;48.148;11.542;2023-07-28T12:08:38;25.80;90.80
45012;DHT22;63444;48.148;11.542;2023-07-28T12:11:04;25.80;90.70
45012;DHT22;63444;48.148;11.542;2023-07-28T12:13:30;25.80;90.90
45012;DHT22;63444;48.148;11.542;2023-07-28T12:15:56;25.80;90.90
45012;DHT22;63444;48.148;11.542;2023-07-28T12:18:21;25.90;91.10
45012;DHT22;63444;48.148;11.542;2023-07-28T12:20:49;26.00;90.90
45012;DHT22;63444;48.148;11.542;2023-07-28T12:25:43;26.00;90.90
45012;DHT22;63444;48.148;11.542;2023-07-28T12:28:09;26.10;90.90
45012;DHT22;63444;48.148;11.542;2023-07-28T12:30:35;26.10;90.90
45012;DHT22;63444;48.148;11.542;2023-07-28T12:33:01;26.20;91.10
45012;DHT22;63444;48.148;11.542;2023-07-28T12:35:27;26.20;91.00
45012;DHT22;63444;48.148;11.542;2023-07-28T12:37:58;26.20;90.30
45012;DHT22;63444;48.148;11.542;2023-07-28T12:40:26;26.10;90.00
45012;DHT22;63444;48.148;11.542;2023-07-28T12:42:52;26.00;90.00
45012;DHT22;63444;48.148;11.542;2023-07-28T12:45:17;26.00;90.20
45012;DHT22;63444;48.148;11.542;2023-07-28T12:47:43;26.00;90.50
45012;DHT22;63444;48.148;11.542;2023-07-28T12:50:09;25.90;90.60
45012;DHT22;63444;48.148;11.542;2023-07-28T12:52:36;26.00;90.50
45012;DHT22;63444;48.148;11.542;2023-07-28T12:55:02;26.00;90.10
45012;DHT22;63444;48.148;11.542;2023-07-28T12:57:27;26.00;90.30
45012;DHT22;63444;48.148;11.542;2023-07-28T12:59:53;26.00;90.10
45012;DHT22;63444;48.148;11.542;2023-07-28T13:02:19;26.10;90.10
45012;DHT22;63444;48.148;11.542;2023-07-28T13:04:44;26.10;89.70
45012;DHT22;63444;48.148;11.542;2023-07-28T13:07:10;26.10;90.00
45012;DHT22;63444;48.148;11.542;2023-07-28T13:09:35;26.10;90.30
45012;DHT22;63444;48.148;11.542;2023-07-28T13:12:01;26.10;90.50
45012;DHT22;63444;48.148;11.542;2023-07-28T13:14:26;26.10;90.40
45012;DHT22;63444;48.148;11.542;2023-07-28T13:16:52;26.10;90.80
45012;DHT22;63444;48.148;11.542;2023-07-28T13:19:18;26.20;90.50
45012;DHT22;63444;48.148;11.542;2023-07-28T13:21:43;26.20;90.40
45012;DHT22;63444;48.148;11.542;2023-07-28T13:24:09;26.20;90.30
45012;DHT22;63444;48.148;11.542;2023-07-28T13:26:35;26.20;90.50
45012;DHT22;63444;48.148;11.542;2023-07-28T13:29:01;26.30;90.40
45012;DHT22;63444;48.148;11.542;2023-07-28T13:31:32;26.30;90.40
45012;DHT22;63444;48.148;11.542;2023-07-28T13:33:58;26.20;90.40
45012;DHT22;63444;48.148;11.542;2023-07-28T13:36:23;26.30;90.90
45012;DHT22;63444;48.148;11.542;2023-07-28T13:38:49;26.30;90.60
45012;DHT22;63444;48.148;11.542;2023-07-28T13:41:15;26.30;90.70
45012;DHT22;63444;48.148;11.542;2023-07-28T13:43:40;26.20;90.70
45012;DHT22;63444;48.148;11.542;2023-07-28T13:46:07;26.30;90.50
45012;DHT22;63444;48.148;11.542;2023-07-28T13:48:33;26.30;90.30
45012;DHT22;63444;48.148;11.542;2023-07-28T13:50:59;26.30;90.20
45012;DHT22;63444;48.148;11.542;2023-07-28T13:53:25;26.30;90.10
45012;DHT22;63444;48.148;11.542;2023-07-28T13:55:50;26.20;90.20
45012;DHT22;63444;48.148;11.542;2023-07-28T13:58:17;26.20;90.10
45012;DHT22;63444;48.148;11.542;2023-07-28T14:00:43;26.20;89.80
45012;DHT22;63444;48.148;11.542;2023-07-28T14:03:08;26.20;89.80
45012;DHT22;63444;48.148;11.542;2023-07-28T14:05:35;26.20;89.20
45012;DHT22;63444;48.148;11.542;2023-07-28T14:08:01;26.10;88.80
45012;DHT22;63444;48.148;11.542;2023-07-28T14:10:26;26.10;88.70
45012;DHT22;63444;48.148;11.542;2023-07-28T14:12:52;26.00;88.80
45012;DHT22;63444;48.148;11.542;2023-07-28T14:15:17;25.90;89.30
45012;DHT22;63444;48.148;11.542;2023-07-28T14:17:43;25.90;89.10
45012;DHT22;63444;48.148;11.542;2023-07-28T14:20:09;25.80;89.40
45012;DHT22;63444;48.148;11.542;2023-07-28T14:22:35;25.70;89.90
45012;DHT22;63444;48.148;11.542;2023-07-28T14:25:01;25.50;90.00
45012;DHT22;63444;48.148;11.542;2023-07-28T14:27:26;25.50;92.10
45012;DHT22;63444;48.148;11.542;2023-07-28T14:29:52;25.50;93.60
45012;DHT22;63444;48.148;11.542;2023-07-28T14:32:17;25.40;94.70
45012;DHT22;63444;48.148;11.542;2023-07-28T14:34:43;25.30;94.90
45012;DHT22;63444;48.148;11.542;2023-07-28T14:37:08;25.30;95.70
45012;DHT22;63444;48.148;11.542;2023-07-28T14:39:34;25.10;96.20
45012;DHT22;63444;48.148;11.542;2023-07-28T14:42:00;25.00;96.80
45012;DHT22;63444;48.148;11.542;2023-07-28T14:44:26;24.90;97.20
45012;DHT22;63444;48.148;11.542;2023-07-28T14:46:51;24.80;97.20
45012;DHT22;63444;48.148;11.542;2023-07-28T14:49:17;24.70;97.70
45012;DHT22;63444;48.148;11.542;2023-07-28T14:51:42;24.70;98.10
45012;DHT22;63444;48.148;11.542;2023-07-28T14:54:08;24.60;98.00
45012;DHT22;63444;48.148;11.542;2023-07-28T14:56:34;24.50;97.60
45012;DHT22;63444;48.148;11.542;2023-07-28T14:58:59;24.50;98.10
45012;DHT22;63444;48.148;11.542;2023-07-28T15:01:29;24.40;98.60
45012;DHT22;63444;48.148;11.542;2023-07-28T15:03:54;24.40;98.50
45012;DHT22;63444;48.148;11.542;2023-07-28T15:06:20;24.50;98.20
45012;DHT22;63444;48.148;11.542;2023-07-28T15:08:46;24.50;98.10
45012;DHT22;63444;48.148;11.542;2023-07-28T15:11:11;24.50;98.50
45012;DHT22;63444;48.148;11.542;2023-07-28T15:13:37;24.50;98.40
45012;DHT22;63444;48.148;11.542;2023-07-28T15:16:02;24.60;98.40
45012;DHT22;63444;48.148;11.542;2023-07-28T15:18:28;24.60;98.30
45012;DHT22;63444;48.148;11.542;2023-07-28T15:20:54;24.60;97.80
45012;DHT22;63444;48.148;11.542;2023-07-28T15:23:25;24.70;97.90